Time;durP1;ratioP1;P1;durP2;ratioP2;P2;SDS_P1;SDS_P2;PMS_P1;PMS_P2;Temp;Humidity;BMP_temperature;BMP_pressure;BME280_temperature;BME280_humidity;BME280_pressure;Samples;Min_cycle;Max_cycle;Signal;HPM_P1;HPM_P2
2023/06/27 00:01:39;;;;;;;17.85;11.48;;;;;;;;;;4989155;28;20026;-57
2023/06/27 00:04:05;;;;;;;17.50;11.70;;;;;;;;;;4999254;28;20041;-57
2023/06/27 00:06:30;;;;;;;20.02;11.15;;;;;;;;;;4998200;28;20018;-57
2023/06/27 00:08:55;;;;;;;17.20;11.33;;;;;;;;;;4982962;28;20034;-56
2023/06/27 00:11:21;;;;;;;18.73;11.93;;;;;;;;;;4985651;28;20882;-59
2023/06/27 00:13:46;;;;;;;22.45;13.98;;;;;;;;;;4997240;28;20514;-58
2023/06/27 00:16:15;;;;;;;23.33;11.68;;;;;;;;;;4999552;28;20024;-59
2023/06/27 00:18:42;;;;;;;18.45;11.65;;;;;;;;;;5002294;28;20108;-57
2023/06/27 00:21:07;;;;;;;20.20;11.77;;;;;;;;;;4991561;28;20030;-56
2023/06/27 00:23:35;;;;;;;18.17;11.43;;;;;;;;;;5070139;28;20032;-59
2023/06/27 00:26:02;;;;;;;25.88;13.90;;;;;;;;;;5000775;28;20026;-58
2023/06/27 00:28:28;;;;;;;20.55;12.80;;;;;;;;;;5103717;27;20518;-58
2023/06/27 00:30:53;;;;;;;20.13;12.50;;;;;;;;;;5001208;28;20036;-58
2023/06/27 00:33:18;;;;;;;20.90;11.98;;;;;;;;;;5001662;28;20045;-59
2023/06/27 00:35:43;;;;;;;20.60;12.43;;;;;;;;;;5001641;28;20408;-57
2023/06/27 00:38:09;;;;;;;23.80;13.27;;;;;;;;;;4994616;28;20289;-59
2023/06/27 00:40:34;;;;;;;20.73;12.83;;;;;;;;;;4990688;28;20031;-56
2023/06/27 00:42:59;;;;;;;27.98;13.13;;;;;;;;;;4990074;28;20271;-56
2023/06/27 00:45:24;;;;;;;21.15;13.57;;;;;;;;;;5002033;28;20077;-57
2023/06/27 00:47:53;;;;;;;29.17;14.35;;;;;;;;;;5000330;28;20059;-59
2023/06/27 00:50:21;;;;;;;25.02;14.38;;;;;;;;;;5001918;28;20022;-59
2023/06/27 00:52:47;;;;;;;26.10;15.53;;;;;;;;;;5000430;28;20048;-57
2023/06/27 00:55:12;;;;;;;20.83;13.15;;;;;;;;;;5001727;28;20014;-58
2023/06/27 00:57:39;;;;;;;29.20;12.52;;;;;;;;;;4989352;28;20033;-56
2023/06/27 01:00:05;;;;;;;19.55;12.25;;;;;;;;;;4982089;28;20088;-56
2023/06/27 01:02:30;;;;;;;19.23;11.23;;;;;;;;;;4982730;28;20100;-60
2023/06/27 01:04:55;;;;;;;26.60;11.95;;;;;;;;;;4982630;28;20025;-59
2023/06/27 01:07:25;;;;;;;25.25;12.27;;;;;;;;;;4989065;28;20030;-58
2023/06/27 01:09:51;;;;;;;23.48;12.40;;;;;;;;;;5000216;28;20025;-58
2023/06/27 01:12:32;;;;;;;18.02;12.82;;;;;;;;;;4998495;28;20383;-58
2023/06/27 01:14:57;;;;;;;21.95;12.25;;;;;;;;;;5000739;28;20105;-59
2023/06/27 01:17:24;;;;;;;23.13;12.70;;;;;;;;;;4998057;28;20702;-60
2023/06/27 01:19:52;;;;;;;22.15;11.93;;;;;;;;;;5003021;28;20049;-59
2023/06/27 01:22:19;;;;;;;20.80;11.60;;;;;;;;;;5000834;28;20091;-59
2023/06/27 01:24:45;;;;;;;20.90;11.30;;;;;;;;;;5002738;28;20010;-56
2023/06/27 01:27:11;;;;;;;18.73;10.65;;;;;;;;;;5002207;28;20117;-59
2023/06/27 01:29:40;;;;;;;18.63;10.65;;;;;;;;;;5002247;28;20434;-59
2023/06/27 01:32:09;;;;;;;18.27;10.43;;;;;;;;;;5001760;28;20038;-59
2023/06/27 01:34:35;;;;;;;;;;;;;;;;;;5004386;28;20034;-57
2023/06/27 01:37:03;;;;;;;18.83;9.43;;;;;;;;;;5002437;28;19940;-57
2023/06/27 01:39:30;;;;;;;18.90;9.87;;;;;;;;;;5004088;28;20022;-59
2023/06/27 01:41:58;;;;;;;15.68;9.00;;;;;;;;;;5002880;28;20109;-58
2023/06/27 01:44:24;;;;;;;14.65;8.93;;;;;;;;;;5003458;28;20053;-59
2023/06/27 01:46:51;;;;;;;18.85;9.32;;;;;;;;;;5002130;28;20445;-56
2023/06/27 01:49:16;;;;;;;19.25;9.52;;;;;;;;;;5070445;28;20526;-57
2023/06/27 01:51:41;;;;;;;17.75;9.65;;;;;;;;;;4995678;28;20027;-58
2023/06/27 01:54:07;;;;;;;16.80;8.98;;;;;;;;;;4983217;28;20577;-60
2023/06/27 01:56:32;;;;;;;19.20;9.57;;;;;;;;;;4988046;28;20029;-58
2023/06/27 01:58:57;;;;;;;15.43;9.13;;;;;;;;;;5002450;28;20535;-57
2023/06/27 02:01:23;;;;;;;20.55;9.38;;;;;;;;;;4998686;28;20511;-58
2023/06/27 02:03:48;;;;;;;22.38;9.20;;;;;;;;;;4999834;28;20021;-57
2023/06/27 02:06:15;;;;;;;14.98;9.45;;;;;;;;;;4981339;28;20040;-59
2023/06/27 02:08:40;;;;;;;17.83;8.55;;;;;;;;;;4981340;28;20028;-59
2023/06/27 02:11:05;;;;;;;20.95;9.82;;;;;;;;;;4982044;28;20031;-59
2023/06/27 02:13:35;;;;;;;21.23;8.60;;;;;;;;;;4987858;28;20072;-59
2023/06/27 02:16:00;;;;;;;17.83;9.68;;;;;;;;;;4995899;28;20030;-57
2023/06/27 02:18:25;;;;;;;19.70;9.70;;;;;;;;;;5000312;28;20029;-58
2023/06/27 02:20:51;;;;;;;16.90;10.10;;;;;;;;;;4999589;28;20094;-58
2023/06/27 02:23:16;;;;;;;20.40;9.10;;;;;;;;;;4999917;28;20294;-57
2023/06/27 02:25:43;;;;;;;15.52;9.50;;;;;;;;;;5067821;28;20274;-58
2023/06/27 02:28:08;;;;;;;12.07;8.23;;;;;;;;;;4998780;28;20026;-56
2023/06/27 02:30:33;;;;;;;28.83;10.40;;;;;;;;;;4998704;28;20079;-59
2023/06/27 02:32:59;;;;;;;16.73;9.95;;;;;;;;;;4995042;28;20108;-58
2023/06/27 02:35:24;;;;;;;17.15;9.32;;;;;;;;;;4980286;28;20033;-57
2023/06/27 02:37:49;;;;;;;15.48;9.85;;;;;;;;;;4996493;28;20113;-59
2023/06/27 02:40:15;;;;;;;16.58;10.02;;;;;;;;;;4999996;28;20355;-58
2023/06/27 02:42:40;;;;;;;18.58;9.90;;;;;;;;;;4998289;28;20034;-57
2023/06/27 02:45:05;;;;;;;21.63;10.10;;;;;;;;;;4999802;28;20054;-58
2023/06/27 02:47:31;;;;;;;18.85;9.88;;;;;;;;;;4998543;28;20034;-57
2023/06/27 02:49:56;;;;;;;18.80;8.77;;;;;;;;;;4999141;28;20030;-58
2023/06/27 02:52:21;;;;;;;21.43;9.60;;;;;;;;;;4987426;28;20479;-58
2023/06/27 02:54:48;;;;;;;24.83;10.80;;;;;;;;;;4980181;28;20240;-56
2023/06/27 02:57:13;;;;;;;19.20;9.00;;;;;;;;;;4984232;28;20079;-58
2023/06/27 02:59:38;;;;;;;22.23;9.90;;;;;;;;;;4984920;28;20034;-54
2023/06/27 03:02:04;;;;;;;14.48;10.90;;;;;;;;;;4989658;28;20509;-59
2023/06/27 03:04:29;;;;;;;21.67;12.35;;;;;;;;;;4999590;28;20026;-58
2023/06/27 03:06:54;;;;;;;17.50;11.68;;;;;;;;;;4981474;28;20026;-58
2023/06/27 03:09:20;;;;;;;19.88;12.27;;;;;;;;;;4980124;28;20629;-59
2023/06/27 03:11:45;;;;;;;19.17;12.63;;;;;;;;;;4986919;28;20037;-57
2023/06/27 03:14:10;;;;;;;27.73;13.00;;;;;;;;;;4999392;28;20033;-59
2023/06/27 03:16:36;;;;;;;15.95;10.98;;;;;;;;;;5001340;28;20713;-58
2023/06/27 03:19:01;;;;;;;15.65;11.63;;;;;;;;;;5003550;28;20048;-59
2023/06/27 03:21:26;;;;;;;21.90;13.07;;;;;;;;;;5067870;28;20018;-58
2023/06/27 03:23:51;;;;;;;18.10;10.97;;;;;;;;;;5002519;28;20030;-58
2023/06/27 03:26:17;;;;;;;14.18;8.27;;;;;;;;;;5001336;28;20518;-58
2023/06/27 03:28:42;;;;;;;17.53;9.80;;;;;;;;;;5003176;28;20393;-60
2023/06/27 03:31:07;;;;;;;16.63;10.00;;;;;;;;;;5000068;28;20255;-58
2023/06/27 03:33:32;;;;;;;16.77;11.30;;;;;;;;;;4982942;28;20026;-59
2023/06/27 03:35:58;;;;;;;26.20;10.63;;;;;;;;;;4984167;28;20599;-59
2023/06/27 03:38:23;;;;;;;20.30;12.43;;;;;;;;;;5002627;28;20069;-56
2023/06/27 03:40:48;;;;;;;21.00;11.48;;;;;;;;;;5002216;28;20386;-58
2023/06/27 03:43:14;;;;;;;23.43;11.30;;;;;;;;;;5004939;28;20561;-57
2023/06/27 03:45:40;;;;;;;20.15;9.73;;;;;;;;;;5002196;28;20287;-60
2023/06/27 03:48:06;;;;;;;19.60;9.63;;;;;;;;;;5069024;28;20026;-59
2023/06/27 03:50:32;;;;;;;20.05;9.45;;;;;;;;;;5104296;27;20041;-58
2023/06/27 03:52:57;;;;;;;18.23;9.93;;;;;;;;;;4998397;28;20130;-59
2023/06/27 03:55:22;;;;;;;20.33;9.63;;;;;;;;;;4982985;28;20037;-56
2023/06/27 03:57:49;;;;;;;22.00;10.32;;;;;;;;;;4998124;28;20022;-58
2023/06/27 04:00:14;;;;;;;23.27;10.73;;;;;;;;;;5002350;28;20017;-58
2023/06/27 04:02:39;;;;;;;15.00;9.00;;;;;;;;;;5001731;28;20034;-58
2023/06/27 04:05:05;;;;;;;23.45;9.25;;;;;;;;;;5000907;28;20033;-57
2023/06/27 04:07:30;;;;;;;25.95;10.80;;;;;;;;;;4987538;28;20083;-57
2023/06/27 04:09:56;;;;;;;17.85;8.43;;;;;;;;;;4982439;28;20027;-57
2023/06/27 04:12:21;;;;;;;15.67;6.87;;;;;;;;;;5061305;28;20086;-57
2023/06/27 04:14:46;;;;;;;18.02;8.20;;;;;;;;;;5002255;28;20247;-58
2023/06/27 04:17:11;;;;;;;16.57;7.87;;;;;;;;;;5067249;28;20163;-58
2023/06/27 04:19:37;;;;;;;20.52;8.45;;;;;;;;;;5002013;28;20252;-58
2023/06/27 04:22:02;;;;;;;19.30;8.23;;;;;;;;;;5044885;28;20366;-58
2023/06/27 04:24:28;;;;;;;19.90;7.25;;;;;;;;;;4983860;28;20279;-59
2023/06/27 04:26:53;;;;;;;16.13;8.13;;;;;;;;;;4982384;28;20520;-56
2023/06/27 04:29:18;;;;;;;20.33;8.67;;;;;;;;;;5002027;28;20256;-58
2023/06/27 04:31:43;;;;;;;15.48;6.72;;;;;;;;;;5001975;28;20243;-57
2023/06/27 04:34:09;;;;;;;22.87;8.17;;;;;;;;;;5001703;28;20078;-58
2023/06/27 04:36:36;;;;;;;20.35;7.28;;;;;;;;;;5001754;28;20497;-58
2023/06/27 04:39:05;;;;;;;19.48;7.55;;;;;;;;;;5001903;28;20026;-59
2023/06/27 04:41:31;;;;;;;22.25;7.45;;;;;;;;;;4982836;28;20159;-56
2023/06/27 04:43:59;;;;;;;15.27;7.10;;;;;;;;;;4982108;28;20086;-59
2023/06/27 04:46:28;;;;;;;17.25;7.72;;;;;;;;;;5048929;28;20021;-59
2023/06/27 04:48:56;;;;;;;15.65;7.68;;;;;;;;;;4982017;28;20022;-58
2023/06/27 04:51:22;;;;;;;14.90;6.75;;;;;;;;;;4982577;28;20024;-57
2023/06/27 04:53:47;;;;;;;14.57;8.38;;;;;;;;;;4997716;28;20124;-59
2023/06/27 04:56:12;;;;;;;20.70;7.83;;;;;;;;;;5000243;28;20444;-59
2023/06/27 04:58:37;;;;;;;21.10;7.93;;;;;;;;;;4982445;28;20244;-60
2023/06/27 05:01:03;;;;;;;19.60;8.40;;;;;;;;;;4985732;28;20792;-58
2023/06/27 05:03:28;;;;;;;16.30;6.20;;;;;;;;;;5047453;28;20260;-59
2023/06/27 05:05:53;;;;;;;10.10;6.45;;;;;;;;;;4982817;28;20515;-59
2023/06/27 05:08:18;;;;;;;11.27;6.55;;;;;;;;;;5001155;28;20054;-57
2023/06/27 05:10:44;;;;;;;17.37;6.83;;;;;;;;;;5001495;28;20054;-59
2023/06/27 05:13:09;;;;;;;14.43;6.63;;;;;;;;;;5001276;28;20272;-59
2023/06/27 05:15:34;;;;;;;11.55;5.93;;;;;;;;;;4986358;28;20031;-60
2023/06/27 05:18:05;;;;;;;17.13;6.87;;;;;;;;;;4984865;28;20022;-60
2023/06/27 05:20:31;;;;;;;11.57;5.88;;;;;;;;;;5087005;28;20309;-58
2023/06/27 05:22:56;;;;;;;12.00;5.37;;;;;;;;;;5051287;28;20071;-59
2023/06/27 05:25:21;;;;;;;15.67;5.17;;;;;;;;;;5086902;28;20863;-60
2023/06/27 05:27:46;;;;;;;18.20;6.10;;;;;;;;;;5086899;28;20298;-58
2023/06/27 05:30:12;;;;;;;9.47;4.97;;;;;;;;;;5082652;28;20607;-58
2023/06/27 05:32:37;;;;;;;15.30;5.95;;;;;;;;;;5002657;28;20134;-59
2023/06/27 05:35:03;;;;;;;13.03;5.97;;;;;;;;;;5003914;28;20026;-59
2023/06/27 05:37:28;;;;;;;12.07;5.90;;;;;;;;;;4990865;28;20739;-59
2023/06/27 05:39:53;;;;;;;15.03;6.10;;;;;;;;;;4989512;28;20057;-58
2023/06/27 05:42:18;;;;;;;11.50;5.63;;;;;;;;;;4999795;28;21515;-60
2023/06/27 05:44:44;;;;;;;8.45;5.00;;;;;;;;;;5012626;28;20243;-60
2023/06/27 05:47:09;;;;;;;10.03;5.20;;;;;;;;;;5035125;28;20026;-56
2023/06/27 05:49:34;;;;;;;12.60;5.43;;;;;;;;;;5010264;28;20263;-58
2023/06/27 05:51:59;;;;;;;13.03;5.53;;;;;;;;;;4994056;28;20786;-59
2023/06/27 05:54:25;;;;;;;10.10;4.90;;;;;;;;;;4988579;28;20026;-58
2023/06/27 05:56:50;;;;;;;9.33;5.23;;;;;;;;;;5069401;28;20037;-58
2023/06/27 05:59:15;;;;;;;11.23;5.25;;;;;;;;;;4997687;28;20354;-58
2023/06/27 06:01:41;;;;;;;7.43;4.88;;;;;;;;;;4989994;28;20083;-58
2023/06/27 06:04:06;;;;;;;9.65;4.97;;;;;;;;;;4993572;28;20026;-58
2023/06/27 06:06:33;;;;;;;18.80;6.20;;;;;;;;;;4999538;28;20036;-59
2023/06/27 06:08:59;;;;;;;13.68;4.80;;;;;;;;;;4992082;28;20053;-60
2023/06/27 06:11:24;;;;;;;11.02;4.93;;;;;;;;;;4999708;28;20075;-58
2023/06/27 06:13:49;;;;;;;150.37;86.90;;;;;;;;;;4990516;28;20372;-58
2023/06/27 06:16:15;;;;;;;9.03;4.50;;;;;;;;;;4998744;28;20336;-60
2023/06/27 06:18:40;;;;;;;213.55;162.73;;;;;;;;;;4991490;28;20655;-56
2023/06/27 06:21:05;;;;;;;618.83;557.77;;;;;;;;;;5003817;28;20018;-64
2023/06/27 06:23:31;;;;;;;663.75;599.58;;;;;;;;;;5069946;28;20620;-65
2023/06/27 06:25:56;;;;;;;650.17;585.10;;;;;;;;;;5004239;28;20437;-64
2023/06/27 06:28:21;;;;;;;818.08;740.88;;;;;;;;;;5003221;28;20034;-67
2023/06/27 06:30:46;;;;;;;871.80;784.73;;;;;;;;;;5000463;28;20758;-65
2023/06/27 06:33:12;;;;;;;867.80;777.75;;;;;;;;;;4998206;28;20286;-65
2023/06/27 06:35:37;;;;;;;883.20;789.55;;;;;;;;;;4993086;28;20041;-61
2023/06/27 06:38:03;;;;;;;765.35;651.70;;;;;;;;;;4995383;28;20084;-65
2023/06/27 06:40:30;;;;;;;775.80;585.17;;;;;;;;;;4991603;28;20029;-65
2023/06/27 06:42:55;;;;;;;749.50;672.60;;;;;;;;;;5056982;28;20046;-64
2023/06/27 06:45:20;;;;;;;680.65;613.38;;;;;;;;;;5000647;28;20053;-62
2023/06/27 06:47:46;;;;;;;684.70;621.88;;;;;;;;;;4992682;28;20029;-60
2023/06/27 06:50:11;;;;;;;702.00;636.55;;;;;;;;;;4994867;28;20118;-64
2023/06/27 06:52:36;;;;;;;739.03;675.67;;;;;;;;;;4997859;28;20045;-65
2023/06/27 06:55:02;;;;;;;738.97;673.75;;;;;;;;;;4999523;28;20026;-65
2023/06/27 06:57:27;;;;;;;646.10;591.58;;;;;;;;;;5001651;28;20018;-62
2023/06/27 06:59:52;;;;;;;622.05;569.92;;;;;;;;;;5011520;28;20018;-64
2023/06/27 07:02:18;;;;;;;594.00;545.83;;;;;;;;;;5002117;28;20381;-56
2023/06/27 07:04:43;;;;;;;627.05;564.95;;;;;;;;;;4987878;28;20041;-60
2023/06/27 07:07:08;;;;;;;551.22;508.90;;;;;;;;;;5067488;28;20075;-65
2023/06/27 07:09:34;;;;;;;533.15;494.17;;;;;;;;;;5000171;28;20054;-63
2023/06/27 07:11:59;;;;;;;21.33;7.00;;;;;;;;;;4998533;28;20113;-61
2023/06/27 07:14:24;;;;;;;14.88;5.82;;;;;;;;;;4999982;28;20061;-62
2023/06/27 07:16:50;;;;;;;11.43;6.15;;;;;;;;;;4998265;28;20111;-56
2023/06/27 07:19:15;;;;;;;9.97;5.50;;;;;;;;;;5001567;28;20022;-63
2023/06/27 07:21:40;;;;;;;14.95;6.75;;;;;;;;;;4996305;28;20711;-63
2023/06/27 07:24:06;;;;;;;11.30;6.32;;;;;;;;;;5000467;28;20121;-62
2023/06/27 07:26:31;;;;;;;13.32;6.00;;;;;;;;;;5005145;28;20061;-61
2023/06/27 07:28:56;;;;;;;11.53;6.50;;;;;;;;;;5000127;28;20463;-59
2023/06/27 07:31:22;;;;;;;8.45;6.07;;;;;;;;;;4996764;28;20299;-62
2023/06/27 07:33:47;;;;;;;9.27;5.95;;;;;;;;;;4998649;28;20437;-58
2023/06/27 07:36:12;;;;;;;14.95;6.00;;;;;;;;;;4994936;28;20488;-66
2023/06/27 07:38:38;;;;;;;11.10;6.22;;;;;;;;;;5004040;28;20382;-62
2023/06/27 07:41:03;;;;;;;9.37;5.67;;;;;;;;;;5061679;28;20443;-62
2023/06/27 07:43:28;;;;;;;541.13;484.00;;;;;;;;;;5003749;28;20267;-62
2023/06/27 07:45:54;;;;;;;721.05;471.40;;;;;;;;;;5002263;28;20503;-59
2023/06/27 07:48:19;;;;;;;753.45;532.72;;;;;;;;;;4990469;28;20481;-62
2023/06/27 07:50:44;;;;;;;686.28;594.17;;;;;;;;;;4998753;28;20066;-63
2023/06/27 07:53:09;;;;;;;792.92;524.17;;;;;;;;;;5002594;28;20044;-63
2023/06/27 07:55:35;;;;;;;23.85;21.55;;;;;;;;;;4998238;28;20847;-63
2023/06/27 07:58:00;;;;;;;32.00;28.55;;;;;;;;;;5005164;28;20547;-63
2023/06/27 08:00:25;;;;;;;21.60;18.77;;;;;;;;;;5005140;28;20551;-63
2023/06/27 08:02:51;;;;;;;11.10;6.35;;;;;;;;;;5069455;28;20385;-60
2023/06/27 08:05:16;;;;;;;13.95;7.28;;;;;;;;;;4987665;28;20025;-61
2023/06/27 08:07:41;;;;;;;11.00;6.70;;;;;;;;;;4997102;28;20563;-61
2023/06/27 08:10:07;;;;;;;15.70;10.63;;;;;;;;;;4997219;28;20026;-63
2023/06/27 08:12:32;;;;;;;16.70;6.72;;;;;;;;;;4992804;28;20026;-61
2023/06/27 08:14:58;;;;;;;12.77;6.40;;;;;;;;;;4991132;28;20455;-61
2023/06/27 08:17:23;;;;;;;10.87;6.87;;;;;;;;;;4997142;28;20052;-65
2023/06/27 08:19:49;;;;;;;9.93;5.90;;;;;;;;;;5070754;28;20290;-62
2023/06/27 08:22:14;;;;;;;10.17;6.67;;;;;;;;;;5047970;28;20040;-67
2023/06/27 08:24:40;;;;;;;15.13;6.63;;;;;;;;;;4989793;28;20267;-63
2023/06/27 08:27:05;;;;;;;10.75;7.00;;;;;;;;;;5061315;28;20664;-63
2023/06/27 08:29:31;;;;;;;12.23;5.95;;;;;;;;;;4994827;28;20539;-61
2023/06/27 08:31:58;;;;;;;18.67;6.35;;;;;;;;;;4995268;28;20026;-64
2023/06/27 08:34:23;;;;;;;11.27;6.00;;;;;;;;;;5069644;28;20573;-61
2023/06/27 08:36:48;;;;;;;12.13;7.07;;;;;;;;;;4996477;28;20018;-62
2023/06/27 08:39:14;;;;;;;14.20;7.43;;;;;;;;;;4996762;28;20267;-63
2023/06/27 08:41:39;;;;;;;11.40;6.57;;;;;;;;;;4994775;28;20256;-62
2023/06/27 08:44:04;;;;;;;15.60;6.83;;;;;;;;;;5035277;28;20061;-61
2023/06/27 08:46:32;;;;;;;11.10;7.13;;;;;;;;;;5004617;28;20029;-61
2023/06/27 08:48:58;;;;;;;16.88;9.75;;;;;;;;;;4987187;28;20244;-62
2023/06/27 08:51:24;;;;;;;14.52;7.07;;;;;;;;;;4997804;28;20022;-61
2023/06/27 08:53:55;;;;;;;12.00;6.72;;;;;;;;;;5094693;27;20552;-61
2023/06/27 08:56:21;;;;;;;13.38;7.18;;;;;;;;;;4993202;28;20046;-60
2023/06/27 08:58:49;;;;;;;9.77;6.80;;;;;;;;;;5000055;28;20018;-60
2023/06/27 09:01:15;;;;;;;26.27;18.73;;;;;;;;;;4993334;28;20033;-60
2023/06/27 09:03:40;;;;;;;16.92;6.63;;;;;;;;;;4990610;28;20434;-62
2023/06/27 09:06:06;;;;;;;8.77;6.13;;;;;;;;;;4990516;28;20037;-59
2023/06/27 09:08:35;;;;;;;11.40;6.78;;;;;;;;;;4985498;28;20519;-60
2023/06/27 09:11:00;;;;;;;;;;;;;;;;;;4993080;28;20037;-60
2023/06/27 09:13:26;;;;;;;17.80;7.80;;;;;;;;;;4987415;28;19917;-60
2023/06/27 09:15:52;;;;;;;12.13;6.50;;;;;;;;;;4990046;28;20085;-59
2023/06/27 09:18:17;;;;;;;8.43;6.60;;;;;;;;;;4992838;28;20037;-60
2023/06/27 09:20:44;;;;;;;13.73;7.68;;;;;;;;;;5042843;28;20034;-61
2023/06/27 09:23:10;;;;;;;11.52;7.43;;;;;;;;;;4985364;28;20083;-60
2023/06/27 09:25:35;;;;;;;16.02;7.15;;;;;;;;;;4989486;28;20041;-60
2023/06/27 09:28:15;;;;;;;12.97;7.07;;;;;;;;;;4990128;28;20198;-60
2023/06/27 09:30:50;;;;;;;137.02;117.38;;;;;;;;;;4993639;28;20508;-59
2023/06/27 09:33:17;;;;;;;13.75;6.85;;;;;;;;;;5002817;28;20073;-60
2023/06/27 09:35:44;;;;;;;9.90;6.72;;;;;;;;;;5004307;28;20022;-60
2023/06/27 09:38:09;;;;;;;14.40;6.60;;;;;;;;;;5000724;28;20525;-60
2023/06/27 09:40:35;;;;;;;11.00;6.33;;;;;;;;;;5065516;28;20038;-60
2023/06/27 09:43:00;;;;;;;9.88;6.75;;;;;;;;;;5004996;28;20240;-60
2023/06/27 09:45:30;;;;;;;10.52;6.70;;;;;;;;;;5005167;28;20061;-61
2023/06/27 09:47:55;;;;;;;10.38;6.65;;;;;;;;;;5003814;28;20030;-60
2023/06/27 09:50:25;;;;;;;11.15;6.20;;;;;;;;;;5040795;28;20039;-60
2023/06/27 09:52:54;;;;;;;9.60;6.05;;;;;;;;;;4993676;28;20459;-60
2023/06/27 09:55:19;;;;;;;12.10;6.68;;;;;;;;;;4986012;28;20083;-60
2023/06/27 09:57:45;;;;;;;15.57;7.30;;;;;;;;;;4985344;28;20023;-60
2023/06/27 10:00:11;;;;;;;11.40;7.07;;;;;;;;;;5051089;28;20042;-60
2023/06/27 10:02:37;;;;;;;9.55;6.00;;;;;;;;;;4985450;28;20026;-59
2023/06/27 10:05:03;;;;;;;33.55;8.50;;;;;;;;;;4985222;28;20023;-60
2023/06/27 10:07:29;;;;;;;11.52;6.32;;;;;;;;;;4985085;28;20387;-59
2023/06/27 10:09:54;;;;;;;11.90;6.68;;;;;;;;;;5004598;28;20030;-60
2023/06/27 10:12:20;;;;;;;12.93;5.88;;;;;;;;;;5004554;28;20502;-59
2023/06/27 10:14:46;;;;;;;9.70;6.45;;;;;;;;;;5053896;28;20544;-60
2023/06/27 10:17:18;;;;;;;11.38;7.03;;;;;;;;;;4993424;28;20033;-60
2023/06/27 10:19:44;;;;;;;10.38;6.45;;;;;;;;;;5004196;28;20030;-62
2023/06/27 10:22:10;;;;;;;19.25;16.77;;;;;;;;;;5062738;28;20099;-60
2023/06/27 10:24:38;;;;;;;9.13;6.32;;;;;;;;;;4987824;28;20018;-61
2023/06/27 10:27:07;;;;;;;10.05;6.65;;;;;;;;;;5008553;28;20087;-59
2023/06/27 10:29:32;;;;;;;10.25;7.07;;;;;;;;;;4991198;28;20819;-58
2023/06/27 10:31:57;;;;;;;11.18;6.70;;;;;;;;;;5014818;28;20026;-61
2023/06/27 10:34:29;;;;;;;10.70;6.30;;;;;;;;;;4991293;28;20125;-60
2023/06/27 10:36:54;;;;;;;13.13;7.22;;;;;;;;;;4998070;28;20255;-61
2023/06/27 10:39:26;;;;;;;10.17;6.90;;;;;;;;;;4991591;28;20031;-64
2023/06/27 10:41:54;;;;;;;11.10;7.18;;;;;;;;;;4994936;28;20025;-63
2023/06/27 10:44:19;;;;;;;8.95;6.70;;;;;;;;;;4994356;28;20137;-63
2023/06/27 10:46:46;;;;;;;10.30;7.13;;;;;;;;;;4996848;28;20051;-62
2023/06/27 10:49:11;;;;;;;10.97;5.87;;;;;;;;;;4994121;28;20033;-62
2023/06/27 10:51:43;;;;;;;10.82;6.60;;;;;;;;;;4997123;28;20259;-62
2023/06/27 10:54:08;;;;;;;11.10;6.57;;;;;;;;;;4990720;28;20045;-61
2023/06/27 10:56:36;;;;;;;20.73;18.83;;;;;;;;;;4991524;28;20034;-62
2023/06/27 10:59:03;;;;;;;21.27;19.13;;;;;;;;;;4990544;28;20699;-62
2023/06/27 11:01:30;;;;;;;14.43;6.80;;;;;;;;;;4990195;28;20467;-61
2023/06/27 11:03:58;;;;;;;23.98;17.13;;;;;;;;;;4989321;28;20180;-62
2023/06/27 11:06:42;;;;;;;8.73;6.33;;;;;;;;;;4986953;28;20060;-61
2023/06/27 11:09:11;;;;;;;17.42;6.43;;;;;;;;;;4988527;28;20026;-62
2023/06/27 11:11:38;;;;;;;16.38;8.70;;;;;;;;;;4992351;28;20030;-62
2023/06/27 11:14:07;;;;;;;12.00;7.03;;;;;;;;;;5077480;28;20058;-61
2023/06/27 11:16:36;;;;;;;15.02;6.90;;;;;;;;;;4985907;28;20417;-60
2023/06/27 11:19:02;;;;;;;13.80;6.53;;;;;;;;;;4986023;28;20117;-60
2023/06/27 11:21:27;;;;;;;15.45;6.70;;;;;;;;;;5054458;28;20129;-60
2023/06/27 11:23:57;;;;;;;16.00;9.93;;;;;;;;;;4992382;28;20033;-60
2023/06/27 11:26:22;;;;;;;14.00;7.07;;;;;;;;;;5084376;27;20386;-61
2023/06/27 11:28:48;;;;;;;16.98;6.65;;;;;;;;;;4987479;28;20105;-60
2023/06/27 11:31:13;;;;;;;11.67;7.03;;;;;;;;;;4989126;28;20656;-61
2023/06/27 11:33:38;;;;;;;13.05;6.15;;;;;;;;;;4987174;28;20278;-61
2023/06/27 11:36:05;;;;;;;8.80;6.47;;;;;;;;;;4989388;28;20084;-62
2023/06/27 11:38:30;;;;;;;20.73;17.45;;;;;;;;;;4993738;28;20377;-60
2023/06/27 11:40:56;;;;;;;9.23;6.25;;;;;;;;;;4998045;28;20084;-60
2023/06/27 11:43:21;;;;;;;10.18;6.18;;;;;;;;;;4992543;28;20820;-59
2023/06/27 11:45:47;;;;;;;12.20;7.00;;;;;;;;;;4995904;28;20058;-62
2023/06/27 11:48:12;;;;;;;10.63;6.45;;;;;;;;;;4988366;28;20305;-60
2023/06/27 11:50:52;;;;;;;14.27;6.82;;;;;;;;;;4991049;28;20026;-60
2023/06/27 11:53:19;;;;;;;11.27;6.35;;;;;;;;;;4994670;28;20026;-59
2023/06/27 11:55:44;;;;;;;8.13;5.93;;;;;;;;;;4995276;28;20046;-62
2023/06/27 11:58:10;;;;;;;14.37;6.40;;;;;;;;;;4992334;28;20040;-58
2023/06/27 12:00:35;;;;;;;8.10;6.03;;;;;;;;;;4994370;28;20267;-58
2023/06/27 12:03:03;;;;;;;10.30;6.27;;;;;;;;;;5001855;28;20029;-60
2023/06/27 12:05:29;;;;;;;9.70;5.97;;;;;;;;;;5001020;28;20251;-60
2023/06/27 12:07:55;;;;;;;9.30;5.72;;;;;;;;;;5002963;28;20474;-56
2023/06/27 12:10:20;;;;;;;8.75;6.38;;;;;;;;;;4991566;28;20127;-60
2023/06/27 12:12:46;;;;;;;9.10;6.18;;;;;;;;;;5082712;27;20506;-66
2023/06/27 12:15:12;;;;;;;9.95;6.50;;;;;;;;;;4991547;28;20041;-57
2023/06/27 12:17:37;;;;;;;7.18;5.72;;;;;;;;;;5030126;28;20023;-59
2023/06/27 12:20:05;;;;;;;12.82;6.47;;;;;;;;;;4998419;28;20025;-60
2023/06/27 12:22:30;;;;;;;12.57;5.43;;;;;;;;;;5002585;28;20032;-60
2023/06/27 12:24:56;;;;;;;7.57;6.28;;;;;;;;;;5007860;28;20030;-58
2023/06/27 12:27:21;;;;;;;8.73;5.80;;;;;;;;;;5061464;28;20537;-59
2023/06/27 12:29:46;;;;;;;14.15;6.32;;;;;;;;;;4996988;28;20603;-60
2023/06/27 12:32:12;;;;;;;9.23;6.50;;;;;;;;;;4999893;28;20050;-61
2023/06/27 12:34:37;;;;;;;10.38;6.00;;;;;;;;;;4997963;28;20960;-60
2023/06/27 12:37:02;;;;;;;8.43;6.07;;;;;;;;;;5003079;28;20505;-59
2023/06/27 12:39:28;;;;;;;8.07;5.22;;;;;;;;;;4998468;28;20516;-60
2023/06/27 12:41:53;;;;;;;16.03;5.63;;;;;;;;;;5001327;28;20113;-59
2023/06/27 12:44:18;;;;;;;11.80;6.20;;;;;;;;;;4997026;28;20287;-56
2023/06/27 12:46:46;;;;;;;11.67;7.00;;;;;;;;;;4995846;28;20279;-58
2023/06/27 12:49:11;;;;;;;12.27;6.53;;;;;;;;;;4997597;28;20272;-58
2023/06/27 12:51:36;;;;;;;11.48;5.95;;;;;;;;;;4986832;28;20904;-57
2023/06/27 12:54:01;;;;;;;11.83;6.33;;;;;;;;;;4998180;28;20042;-56
2023/06/27 12:56:27;;;;;;;673.25;556.13;;;;;;;;;;5001959;28;20263;-60
2023/06/27 12:58:53;;;;;;;902.70;679.60;;;;;;;;;;4997489;28;20030;-58
2023/06/27 13:01:23;;;;;;;897.83;719.97;;;;;;;;;;4991770;28;20651;-59
2023/06/27 13:03:48;;;;;;;880.50;700.33;;;;;;;;;;4997853;28;20049;-61
2023/06/27 13:06:14;;;;;;;891.15;714.67;;;;;;;;;;4996115;28;20690;-59
2023/06/27 13:08:39;;;;;;;883.97;722.33;;;;;;;;;;5002217;28;20526;-58
2023/06/27 13:11:04;;;;;;;846.65;725.78;;;;;;;;;;4996512;28;20304;-54
2023/06/27 13:13:31;;;;;;;882.60;799.63;;;;;;;;;;4996966;28;20037;-55
2023/06/27 13:15:56;;;;;;;815.47;736.55;;;;;;;;;;5056244;28;20034;-54
2023/06/27 13:18:22;;;;;;;528.00;481.38;;;;;;;;;;4984862;28;20171;-57
2023/06/27 13:20:48;;;;;;;744.95;682.40;;;;;;;;;;5033482;28;20117;-56
2023/06/27 13:23:13;;;;;;;668.60;610.30;;;;;;;;;;4995874;28;20031;-57
2023/06/27 13:25:41;;;;;;;698.15;632.63;;;;;;;;;;5062280;28;20051;-55
2023/06/27 13:28:07;;;;;;;693.33;625.60;;;;;;;;;;5003385;28;20030;-54
2023/06/27 13:30:32;;;;;;;688.58;618.85;;;;;;;;;;5004203;28;20021;-58
2023/06/27 13:32:58;;;;;;;692.65;622.78;;;;;;;;;;4996084;28;20125;-55
2023/06/27 13:35:23;;;;;;;679.45;617.22;;;;;;;;;;5002612;28;20120;-58
2023/06/27 13:37:49;;;;;;;689.25;623.25;;;;;;;;;;4999760;28;20086;-58
2023/06/27 13:40:14;;;;;;;689.00;621.30;;;;;;;;;;5013251;28;20034;-60
2023/06/27 13:42:39;;;;;;;670.20;605.65;;;;;;;;;;4999942;28;20154;-58
2023/06/27 13:45:05;;;;;;;690.07;623.60;;;;;;;;;;4994959;28;20493;-57
2023/06/27 13:47:32;;;;;;;645.58;587.85;;;;;;;;;;5026759;28;20272;-59
2023/06/27 13:49:57;;;;;;;647.00;585.53;;;;;;;;;;5001674;28;20020;-56
2023/06/27 13:52:23;;;;;;;739.47;669.77;;;;;;;;;;4999251;28;20022;-58
2023/06/27 13:54:48;;;;;;;781.90;712.20;;;;;;;;;;4995131;28;20263;-52
2023/06/27 13:57:14;;;;;;;773.30;700.83;;;;;;;;;;4989236;28;20272;-57
2023/06/27 13:59:39;;;;;;;771.63;698.47;;;;;;;;;;4993165;28;20263;-56
2023/06/27 14:02:05;;;;;;;732.83;662.38;;;;;;;;;;4997637;28;20028;-58
2023/06/27 14:04:30;;;;;;;721.20;652.95;;;;;;;;;;4993901;28;20480;-55
2023/06/27 14:06:55;;;;;;;773.40;704.17;;;;;;;;;;5002880;28;20054;-58
2023/06/27 14:09:21;;;;;;;778.40;703.20;;;;;;;;;;4990245;28;20071;-58
2023/06/27 14:11:47;;;;;;;763.13;690.83;;;;;;;;;;4988939;28;20648;-58
2023/06/27 14:14:13;;;;;;;714.90;647.97;;;;;;;;;;4989090;28;20037;-57
2023/06/27 14:16:39;;;;;;;582.30;533.45;;;;;;;;;;4994499;28;20026;-57